Time;durP1;ratioP1;P1;durP2;ratioP2;P2;SDS_P1;SDS_P2;PMS_P1;PMS_P2;Temp;Humidity;BMP_temperature;BMP_pressure;BME280_temperature;BME280_humidity;BME280_pressure;Samples;Min_cycle;Max_cycle;Signal;HPM_P1;HPM_P2
2024/02/10 00:01:56;;;;;;;3.33;0.93;;;8.80;99.90;;;;;;4978226;28;20545;-80
2024/02/10 00:04:23;;;;;;;5.80;1.67;;;8.80;99.90;;;;;;4978176;28;20868;-80
2024/02/10 00:06:50;;;;;;;3.87;1.80;;;8.90;99.90;;;;;;4978423;28;20453;-80
2024/02/10 00:09:16;;;;;;;1.50;1.33;;;8.90;99.90;;;;;;4977728;28;20453;-80
2024/02/10 00:11:44;;;;;;;5.67;2.37;;;8.90;99.90;;;;;;4977537;28;20481;-80
2024/02/10 00:14:11;;;;;;;2.73;1.50;;;8.90;99.90;;;;;;4977956;28;20815;-80
2024/02/10 00:16:39;;;;;;;5.90;2.00;;;8.80;99.90;;;;;;4977865;28;20863;-80
2024/02/10 00:19:09;;;;;;;5.77;1.50;;;8.80;99.90;;;;;;4978786;28;20488;-80
2024/02/10 00:21:36;;;;;;;3.53;1.83;;;8.80;99.90;;;;;;4978117;28;20458;-80
2024/02/10 00:24:04;;;;;;;3.13;1.37;;;8.80;99.90;;;;;;4977829;28;20449;-80
2024/02/10 00:26:31;;;;;;;1.67;1.57;;;8.90;99.90;;;;;;4977400;28;20985;-80
2024/02/10 00:28:58;;;;;;;3.33;1.83;;;;;;;;;;4978435;28;20462;-80
2024/02/10 00:31:25;;;;;;;3.17;1.90;;;8.90;99.90;;;;;;4977646;28;20452;-80
2024/02/10 00:33:53;;;;;;;3.20;1.50;;;8.90;99.90;;;;;;4977799;28;20449;-80
2024/02/10 00:36:21;;;;;;;3.53;1.53;;;8.90;99.90;;;;;;4977401;28;20934;-80
2024/02/10 00:38:48;;;;;;;4.70;2.03;;;;;;;;;;4977341;28;20492;-80
2024/02/10 00:41:16;;;;;;;2.27;1.10;;;8.90;99.90;;;;;;4977751;28;20449;-80
2024/02/10 00:43:45;;;;;;;4.90;1.53;;;8.90;99.90;;;;;;4977320;28;20449;-80
2024/02/10 00:46:13;;;;;;;2.47;0.97;;;8.90;99.90;;;;;;4977283;28;20516;-80
2024/02/10 00:48:40;;;;;;;0.70;0.70;;;8.90;99.90;;;;;;4977309;28;20955;-80
2024/02/10 00:51:09;;;;;;;1.33;1.00;;;8.90;99.90;;;;;;4977624;28;20935;-80
2024/02/10 00:53:39;;;;;;;1.67;1.50;;;8.90;99.90;;;;;;4977763;28;20544;-80
2024/02/10 00:56:07;;;;;;;0.80;0.77;;;9.00;99.90;;;;;;4978145;28;20986;-80
2024/02/10 00:58:33;;;;;;;1.50;1.23;;;9.00;99.90;;;;;;4981091;28;20492;-80
2024/02/10 01:01:00;;;;;;;4.57;1.60;;;9.00;99.90;;;;;;4981169;28;20823;-80
2024/02/10 01:03:27;;;;;;;2.60;1.43;;;9.00;99.90;;;;;;4980933;28;20821;-80
2024/02/10 01:05:55;;;;;;;1.80;1.20;;;9.00;99.90;;;;;;4984056;28;20456;-80
2024/02/10 01:08:23;;;;;;;1.67;1.57;;;9.00;99.90;;;;;;4986091;28;20924;-80
2024/02/10 01:10:51;;;;;;;2.43;1.43;;;9.00;99.90;;;;;;4976117;28;20477;-80
2024/02/10 01:13:17;;;;;;;3.10;1.67;;;9.00;99.90;;;;;;4976340;28;20476;-80
2024/02/10 01:15:44;;;;;;;2.60;1.57;;;9.00;99.90;;;;;;4976383;28;20488;-80
2024/02/10 01:18:12;;;;;;;2.20;1.10;;;8.90;99.90;;;;;;4976183;28;20477;-80
2024/02/10 01:20:39;;;;;;;2.37;1.17;;;8.90;99.90;;;;;;4976277;28;20501;-80
2024/02/10 01:23:06;;;;;;;3.57;1.10;;;8.90;99.90;;;;;;4976466;28;20477;-80
2024/02/10 01:25:34;;;;;;;0.80;0.70;;;8.90;99.90;;;;;;4976257;28;20453;-81
2024/02/10 01:28:01;;;;;;;1.63;1.20;;;8.90;99.90;;;;;;4976059;28;20905;-81
2024/02/10 01:30:27;;;;;;;2.00;1.30;;;8.90;99.90;;;;;;4976029;28;20458;-81
2024/02/10 01:32:57;;;;;;;3.33;1.30;;;8.90;99.90;;;;;;4975979;28;20802;-80
2024/02/10 01:35:24;;;;;;;9.63;1.07;;;9.80;99.90;;;;;;4976317;28;20448;-80
2024/02/10 01:37:51;;;;;;;2.33;1.30;;;8.90;99.90;;;;;;4975680;28;20460;-80
2024/02/10 01:40:18;;;;;;;7.70;1.77;;;8.90;99.90;;;;;;4975991;28;20830;-80
2024/02/10 01:42:46;;;;;;;1.53;1.00;;;8.80;99.90;;;;;;4975440;28;20521;-80
2024/02/10 01:45:13;;;;;;;1.57;1.43;;;8.80;99.90;;;;;;4975637;28;20954;-80
2024/02/10 01:47:41;;;;;;;3.03;1.40;;;8.70;99.90;;;;;;4975826;28;20445;-80
2024/02/10 01:50:09;;;;;;;2.40;1.23;;;8.70;99.90;;;;;;4976091;28;20464;-80
2024/02/10 01:52:37;;;;;;;1.13;1.03;;;8.70;99.90;;;;;;4975778;28;20441;-80
2024/02/10 01:55:05;;;;;;;1.30;0.80;;;8.60;99.90;;;;;;4975987;28;20789;-80
2024/02/10 01:57:33;;;;;;;1.13;1.03;;;8.60;99.90;;;;;;4975735;28;20442;-80
2024/02/10 02:00:06;;;;;;;1.63;1.30;;;8.60;99.90;;;;;;4975616;28;20489;-80
2024/02/10 02:02:33;;;;;;;2.40;0.90;;;8.70;99.90;;;;;;4975423;28;20510;-80
2024/02/10 02:05:00;;;;;;;2.37;1.30;;;8.60;99.90;;;;;;4975629;28;20450;-80
2024/02/10 02:07:30;;;;;;;6.27;1.23;;;8.60;99.90;;;;;;4975581;28;20910;-80
2024/02/10 02:09:57;;;;;;;1.80;1.00;;;8.60;99.90;;;;;;4974939;28;20491;-80
2024/02/10 02:12:24;;;;;;;3.10;1.10;;;8.60;99.90;;;;;;4975558;28;20436;-80
2024/02/10 02:14:51;;;;;;;1.43;1.07;;;8.70;99.90;;;;;;4975479;28;20805;-80
2024/02/10 02:17:19;;;;;;;2.20;1.43;;;8.70;99.90;;;;;;4978348;28;20429;-80
2024/02/10 02:19:45;;;;;;;1.40;1.23;;;8.70;99.90;;;;;;4981196;28;20485;-80
2024/02/10 02:22:13;;;;;;;1.20;0.77;;;8.70;99.90;;;;;;4980934;28;20453;-80
2024/02/10 02:24:43;;;;;;;1.50;1.20;;;8.60;99.90;;;;;;4980952;28;20461;-80
2024/02/10 02:27:10;;;;;;;3.27;1.93;;;8.60;99.90;;;;;;4981667;28;20508;-80
2024/02/10 02:29:37;;;;;;;2.63;1.30;;;8.60;99.90;;;;;;4980449;28;20469;-80
2024/02/10 02:32:04;;;;;;;1.40;1.33;;;8.60;99.90;;;;;;4980868;28;20453;-80
2024/02/10 02:34:33;;;;;;;2.73;2.07;;;8.60;99.90;;;;;;4982054;28;20472;-80
2024/02/10 02:36:59;;;;;;;0.60;0.57;;;8.50;99.90;;;;;;4981413;28;20493;-80
2024/02/10 02:39:27;;;;;;;2.87;1.30;;;8.50;99.90;;;;;;4980713;28;20489;-80
2024/02/10 02:41:59;;;;;;;1.57;1.30;;;8.50;99.90;;;;;;4980541;28;20478;-80
2024/02/10 02:44:26;;;;;;;1.80;0.80;;;8.60;99.90;;;;;;4980680;28;20434;-80
2024/02/10 02:46:54;;;;;;;0.70;0.60;;;8.40;99.90;;;;;;4980143;28;20951;-80
2024/02/10 02:49:23;;;;;;;4.53;1.27;;;8.50;99.90;;;;;;4979904;28;20484;-80
2024/02/10 02:51:50;;;;;;;1.90;0.67;;;8.50;99.90;;;;;;4980141;28;20450;-80
2024/02/10 02:54:18;;;;;;;2.40;1.80;;;8.50;99.90;;;;;;4980010;28;20464;-80
2024/02/10 02:56:45;;;;;;;2.60;1.13;;;8.50;99.90;;;;;;4980036;28;20445;-80
2024/02/10 02:59:13;;;;;;;2.10;1.47;;;8.50;99.90;;;;;;4980078;28;20513;-80
2024/02/10 03:01:40;;;;;;;0.90;0.90;;;8.50;99.90;;;;;;4979714;28;20635;-80
2024/02/10 03:04:07;;;;;;;2.53;1.67;;;8.40;99.90;;;;;;4976716;28;20843;-80
2024/02/10 03:06:34;;;;;;;0.80;0.73;;;8.40;99.90;;;;;;4974976;28;20445;-80
2024/02/10 03:09:01;;;;;;;2.13;1.20;;;8.40;99.90;;;;;;4975014;28;20472;-79
2024/02/10 03:11:28;;;;;;;0.97;0.83;;;8.40;99.90;;;;;;4974605;28;20848;-79
2024/02/10 03:13:59;;;;;;;1.70;1.60;;;8.50;99.90;;;;;;4974768;28;20454;-79
2024/02/10 03:16:27;;;;;;;3.73;1.40;;;8.50;99.90;;;;;;4978749;28;20430;-79
2024/02/10 03:18:54;;;;;;;2.37;0.80;;;8.50;99.90;;;;;;4987010;28;20531;-78
2024/02/10 03:21:21;;;;;;;1.10;0.70;;;8.50;99.90;;;;;;4974436;28;20461;-79
2024/02/10 03:23:48;;;;;;;1.27;1.20;;;8.60;99.90;;;;;;4974551;28;20453;-79
2024/02/10 03:26:15;;;;;;;2.03;1.13;;;8.60;99.90;;;;;;4974503;28;20544;-79
2024/02/10 03:28:41;;;;;;;2.10;1.20;;;8.40;99.90;;;;;;4974513;28;20438;-79
2024/02/10 03:31:08;;;;;;;1.00;0.80;;;8.40;99.90;;;;;;4974529;28;20438;-79
2024/02/10 03:33:37;;;;;;;3.20;1.23;;;8.40;99.90;;;;;;4974745;28;20500;-79
2024/02/10 03:36:05;;;;;;;1.10;1.10;;;8.40;99.90;;;;;;4974686;28;20445;-79
2024/02/10 03:38:31;;;;;;;1.83;1.13;;;8.40;99.90;;;;;;4975621;28;20449;-79
2024/02/10 03:40:58;;;;;;;1.80;1.70;;;8.40;99.90;;;;;;4981225;28;20445;-79
2024/02/10 03:43:27;;;;;;;2.90;2.13;;;8.40;99.90;;;;;;4978053;28;20954;-79
2024/02/10 03:45:54;;;;;;;3.50;2.43;;;8.40;99.90;;;;;;4977915;28;20458;-79
2024/02/10 03:48:20;;;;;;;6.63;3.43;;;8.40;99.90;;;;;;4979118;28;20965;-80
2024/02/10 03:50:48;;;;;;;4.03;2.37;;;8.40;99.90;;;;;;4978838;28;20466;-80
2024/02/10 03:53:17;;;;;;;2.00;1.80;;;8.50;99.90;;;;;;4975967;28;20449;-80
2024/02/10 03:55:44;;;;;;;7.33;2.30;;;8.50;99.90;;;;;;4976000;28;20504;-80
2024/02/10 03:58:14;;;;;;;2.37;2.07;;;8.40;99.90;;;;;;4975797;28;20833;-79
2024/02/10 04:00:43;;;;;;;5.40;2.37;;;8.40;99.90;;;;;;4975774;28;20493;-80
2024/02/10 04:03:11;;;;;;;3.63;2.00;;;8.30;99.90;;;;;;4975619;28;21005;-80
2024/02/10 04:05:38;;;;;;;2.87;1.70;;;8.30;99.90;;;;;;4977478;28;20544;-80
2024/02/10 04:08:07;;;;;;;2.30;2.03;;;8.40;99.90;;;;;;4980360;28;20497;-80
2024/02/10 04:10:34;;;;;;;3.90;1.80;;;8.40;99.90;;;;;;4979867;28;20480;-80
2024/02/10 04:13:02;;;;;;;7.13;2.53;;;8.40;99.90;;;;;;4980153;28;20449;-80
2024/02/10 04:15:30;;;;;;;1.50;1.20;;;8.30;99.90;;;;;;4979256;28;20449;-80
2024/02/10 04:17:57;;;;;;;2.93;1.73;;;8.30;99.90;;;;;;4978745;28;20965;-79
2024/02/10 04:20:25;;;;;;;3.60;1.47;;;8.30;99.90;;;;;;4978411;28;20503;-79
2024/02/10 04:22:52;;;;;;;2.17;1.60;;;8.40;99.90;;;;;;4978973;28;20445;-79
2024/02/10 04:25:20;;;;;;;1.70;1.60;;;8.40;99.90;;;;;;4980351;28;20468;-79
2024/02/10 04:27:47;;;;;;;4.27;2.20;;;8.40;99.90;;;;;;4980595;28;20443;-79
2024/02/10 04:30:14;;;;;;;2.30;1.50;;;8.40;99.90;;;;;;4980710;28;21001;-79
2024/02/10 04:32:42;;;;;;;4.07;2.40;;;8.40;99.90;;;;;;4980775;28;21024;-79
2024/02/10 04:35:09;;;;;;;3.97;1.93;;;8.40;99.90;;;;;;4979963;28;20868;-79
2024/02/10 04:37:36;;;;;;;7.20;2.53;;;8.40;99.90;;;;;;4980824;28;20441;-79
2024/02/10 04:40:03;;;;;;;2.87;2.10;;;8.50;99.90;;;;;;4980649;28;20496;-80
2024/02/10 04:42:32;;;;;;;2.50;1.70;;;8.50;99.90;;;;;;4980765;28;20457;-80
2024/02/10 04:44:59;;;;;;;2.97;1.80;;;8.50;99.90;;;;;;4980926;28;20452;-80
2024/02/10 04:47:26;;;;;;;4.67;2.47;;;8.50;99.90;;;;;;4980637;28;20449;-79
2024/02/10 04:49:55;;;;;;;2.50;1.60;;;8.50;99.90;;;;;;4980073;28;20825;-79
2024/02/10 04:52:22;;;;;;;3.50;2.30;;;8.50;99.90;;;;;;4980161;28;20541;-79
2024/02/10 04:54:53;;;;;;;1.37;0.97;;;8.50;99.90;;;;;;4980500;28;20437;-79
2024/02/10 04:57:28;;;;;;;4.73;2.47;;;8.50;99.90;;;;;;4980739;28;20434;-79
2024/02/10 04:59:58;;;;;;;2.13;1.50;;;8.50;99.90;;;;;;4981214;28;20524;-79
2024/02/10 05:02:24;;;;;;;4.10;2.47;;;8.50;99.90;;;;;;4980119;28;20446;-79
2024/02/10 05:04:52;;;;;;;3.97;2.03;;;8.40;99.90;;;;;;4979855;28;20445;-79
2024/02/10 05:07:19;;;;;;;2.73;1.70;;;8.30;99.90;;;;;;4980183;28;20512;-79
2024/02/10 05:09:46;;;;;;;3.70;2.67;;;8.20;99.90;;;;;;4980156;28;20493;-80
2024/02/10 05:12:13;;;;;;;2.77;2.57;;;8.20;99.90;;;;;;4981183;28;20426;-80
2024/02/10 05:14:39;;;;;;;3.57;2.43;;;8.20;99.90;;;;;;4981787;28;20811;-80
2024/02/10 05:17:08;;;;;;;4.20;1.90;;;8.10;99.90;;;;;;4980062;28;20457;-80
2024/02/10 05:19:36;;;;;;;4.10;1.97;;;8.20;99.90;;;;;;4981333;28;20516;-80
2024/02/10 05:22:06;;;;;;;2.63;2.00;;;8.10;99.90;;;;;;4981477;28;20930;-80
2024/02/10 05:24:33;;;;;;;3.63;1.97;;;8.00;99.90;;;;;;4981816;28;20477;-80
2024/02/10 05:27:02;;;;;;;3.60;1.53;;;7.90;99.90;;;;;;4987075;28;20448;-80
2024/02/10 05:29:28;;;;;;;1.90;1.23;;;7.80;99.90;;;;;;4982017;28;20482;-80
2024/02/10 05:31:56;;;;;;;2.67;2.37;;;7.80;99.90;;;;;;4976381;28;20449;-80
2024/02/10 05:34:24;;;;;;;1.27;1.20;;;7.90;99.90;;;;;;4976075;28;20821;-80
2024/02/10 05:36:53;;;;;;;4.40;3.60;;;7.80;99.90;;;;;;4976193;28;20449;-80
2024/02/10 05:39:19;;;;;;;1.83;1.27;;;7.90;99.90;;;;;;4976289;28;20489;-80
2024/02/10 05:41:48;;;;;;;3.53;2.40;;;7.90;99.90;;;;;;4976934;28;20449;-81
2024/02/10 05:44:16;;;;;;;2.10;1.60;;;8.00;99.90;;;;;;4976215;28;20489;-81
2024/02/10 05:46:44;;;;;;;1.30;1.20;;;8.00;99.90;;;;;;4981348;28;20861;-80
2024/02/10 05:49:10;;;;;;;3.27;1.43;;;8.10;99.90;;;;;;4981744;28;20469;-80
2024/02/10 05:51:39;;;;;;;1.73;1.60;;;8.10;99.90;;;;;;4981890;28;20433;-80
2024/02/10 05:54:06;;;;;;;2.73;1.73;;;8.20;99.90;;;;;;4980815;28;20484;-80
2024/02/10 05:56:35;;;;;;;1.97;1.73;;;;;;;;;;4980636;28;20449;-80
2024/02/10 05:59:03;;;;;;;5.30;1.80;;;8.20;99.90;;;;;;4980696;28;20523;-80
2024/02/10 06:01:30;;;;;;;3.60;1.87;;;8.20;99.90;;;;;;4981112;28;20453;-80
2024/02/10 06:03:57;;;;;;;1.97;1.50;;;8.10;99.90;;;;;;4980683;28;20456;-80
2024/02/10 06:06:24;;;;;;;5.03;2.83;;;8.10;99.90;;;;;;4980848;28;20453;-80
2024/02/10 06:08:52;;;;;;;4.33;2.83;;;8.10;99.90;;;;;;4979984;28;20935;-80
2024/02/10 06:11:19;;;;;;;2.17;1.43;;;8.00;99.90;;;;;;4980329;28;20516;-80
2024/02/10 06:13:50;;;;;;;3.73;1.77;;;8.10;99.90;;;;;;4980481;28;20483;-80
2024/02/10 06:16:16;;;;;;;1.53;1.40;;;8.10;99.90;;;;;;4979689;28;20444;-80
2024/02/10 06:18:43;;;;;;;2.83;1.83;;;8.10;99.90;;;;;;4980031;28;20445;-80
2024/02/10 06:21:10;;;;;;;3.23;1.53;;;8.10;99.90;;;;;;4979838;28;20488;-80
2024/02/10 06:23:41;;;;;;;1.73;1.60;;;8.10;99.90;;;;;;4978489;28;20445;-80
2024/02/10 06:26:10;;;;;;;4.00;2.50;;;8.10;99.90;;;;;;4976239;28;20485;-80
2024/02/10 06:28:37;;;;;;;3.80;2.27;;;8.10;99.90;;;;;;4975265;28;20450;-80
2024/02/10 06:31:04;;;;;;;3.30;1.87;;;8.10;99.90;;;;;;4977622;28;20437;-80
2024/02/10 06:33:30;;;;;;;1.57;1.47;;;8.10;99.90;;;;;;4979184;28;20939;-80
2024/02/10 06:35:58;;;;;;;2.10;1.57;;;8.10;99.90;;;;;;4979516;28;20446;-80
2024/02/10 06:38:32;;;;;;;1.70;1.60;;;8.10;99.90;;;;;;4979695;28;20446;-80
2024/02/10 06:40:58;;;;;;;4.93;2.30;;;8.10;99.90;;;;;;4978748;28;20466;-80
2024/02/10 06:43:27;;;;;;;5.30;2.93;;;8.00;99.90;;;;;;4979102;28;20461;-80
2024/02/10 06:45:53;;;;;;;5.07;2.67;;;8.00;99.90;;;;;;4978081;28;20449;-80
2024/02/10 06:48:21;;;;;;;5.97;2.43;;;8.10;99.90;;;;;;4979011;28;20799;-80
2024/02/10 06:50:49;;;;;;;6.63;3.07;;;8.00;99.90;;;;;;4978267;28;20465;-80
2024/02/10 06:53:19;;;;;;;4.93;2.60;;;8.00;99.90;;;;;;4978031;28;20943;-80
2024/02/10 06:55:46;;;;;;;5.77;1.90;;;8.00;99.90;;;;;;4977812;28;20476;-80
2024/02/10 06:58:14;;;;;;;2.70;1.90;;;8.00;99.90;;;;;;4978097;28;20508;-80
2024/02/10 07:00:43;;;;;;;2.90;2.00;;;8.10;99.90;;;;;;4977605;28;20516;-80
2024/02/10 07:03:10;;;;;;;2.60;1.77;;;8.10;99.90;;;;;;4978016;28;20485;-80
2024/02/10 07:05:38;;;;;;;4.90;2.33;;;8.20;99.90;;;;;;4977925;28;20454;-80
2024/02/10 07:08:05;;;;;;;4.30;2.23;;;8.20;99.90;;;;;;4977649;28;20441;-80
2024/02/10 07:10:32;;;;;;;3.30;2.40;;;8.20;99.90;;;;;;4977216;28;20564;-80
2024/02/10 07:12:59;;;;;;;2.33;1.90;;;8.20;99.90;;;;;;4977388;28;20779;-80
2024/02/10 07:15:29;;;;;;;2.80;1.40;;;8.20;99.90;;;;;;4977097;28;20445;-83
2024/02/10 07:17:57;;;;;;;3.60;2.37;;;8.20;99.90;;;;;;4977811;28;20862;-80
2024/02/10 07:20:25;;;;;;;3.63;2.27;;;8.20;99.90;;;;;;4978161;28;20492;-80
2024/02/10 07:22:55;;;;;;;7.53;2.90;;;8.20;99.90;;;;;;4977626;28;20456;-80
2024/02/10 07:25:22;;;;;;;3.80;1.00;;;8.30;99.90;;;;;;4977419;28;20460;-80
2024/02/10 07:27:50;;;;;;;4.57;2.80;;;8.30;99.90;;;;;;4977226;28;20449;-80
2024/02/10 07:30:18;;;;;;;7.27;1.80;;;8.30;99.90;;;;;;4977391;28;20474;-80
2024/02/10 07:32:45;;;;;;;3.10;2.60;;;8.40;99.90;;;;;;4977687;28;20453;-80
2024/02/10 07:35:14;;;;;;;6.57;2.50;;;8.30;99.90;;;;;;4978315;28;20453;-79
2024/02/10 07:37:40;;;;;;;5.13;2.47;;;8.40;99.90;;;;;;4983842;28;20434;-79
2024/02/10 07:40:10;;;;;;;2.47;1.70;;;8.40;99.90;;;;;;4980220;28;20485;-78
2024/02/10 07:42:37;;;;;;;2.73;2.30;;;8.40;99.90;;;;;;4979233;28;20540;-79
2024/02/10 07:45:05;;;;;;;2.93;1.63;;;8.40;99.90;;;;;;4979050;28;20903;-79
2024/02/10 07:47:32;;;;;;;2.30;1.23;;;8.40;99.90;;;;;;4979112;28;20450;-79
2024/02/10 07:49:59;;;;;;;3.73;1.80;;;8.40;99.90;;;;;;4978684;28;20473;-79
2024/02/10 07:52:28;;;;;;;4.57;2.13;;;8.40;99.90;;;;;;4978864;28;20453;-79
2024/02/10 07:54:56;;;;;;;3.43;1.93;;;8.30;99.90;;;;;;4979350;28;20452;-79
2024/02/10 07:57:24;;;;;;;3.83;2.43;;;8.40;99.90;;;;;;4978630;28;20481;-79
2024/02/10 07:59:53;;;;;;;1.50;1.00;;;8.40;99.90;;;;;;4978761;28;20828;-79
2024/02/10 08:02:21;;;;;;;4.50;1.37;;;8.50;99.90;;;;;;4979680;28;20456;-79
2024/02/10 08:04:49;;;;;;;4.40;1.60;;;8.50;99.90;;;;;;4979294;28;20943;-79
2024/02/10 08:07:17;;;;;;;3.87;3.17;;;8.50;99.90;;;;;;4980053;28;20453;-79
2024/02/10 08:09:45;;;;;;;3.03;1.37;;;8.40;99.90;;;;;;4979030;28;20473;-79
2024/02/10 08:12:17;;;;;;;1.80;1.20;;;8.40;99.90;;;;;;4979234;28;20429;-79
2024/02/10 08:14:47;;;;;;;5.13;3.30;;;8.40;99.90;;;;;;4979741;28;20433;-79
2024/02/10 08:17:14;;;;;;;3.03;1.90;;;8.40;99.90;;;;;;4979379;28;20458;-79
2024/02/10 08:19:42;;;;;;;6.20;2.13;;;8.30;99.90;;;;;;4979304;28;20824;-79
2024/02/10 08:22:09;;;;;;;6.67;2.33;;;8.40;99.90;;;;;;4979165;28;20488;-79
2024/02/10 08:24:38;;;;;;;6.43;3.37;;;8.50;99.90;;;;;;4979302;28;20531;-79
2024/02/10 08:27:08;;;;;;;6.00;2.43;;;8.60;99.90;;;;;;4978926;28;20449;-80
2024/02/10 08:29:35;;;;;;;4.93;2.07;;;8.70;99.90;;;;;;4978501;28;20466;-79
2024/02/10 08:32:02;;;;;;;1.47;1.37;;;8.80;99.90;;;;;;4979199;28;20437;-79
2024/02/10 08:34:30;;;;;;;6.63;2.57;;;8.80;99.90;;;;;;4979140;28;20446;-79
2024/02/10 08:36:58;;;;;;;5.53;2.93;;;8.90;99.90;;;;;;4978913;28;20990;-79
2024/02/10 08:39:25;;;;;;;2.40;1.43;;;9.00;99.90;;;;;;4979472;28;20481;-79
2024/02/10 08:41:51;;;;;;;5.57;2.60;;;9.10;99.90;;;;;;4979625;28;20488;-78
2024/02/10 08:44:19;;;;;;;3.60;2.07;;;9.10;99.90;;;;;;4979509;28;20450;-78
2024/02/10 08:46:46;;;;;;;1.40;1.27;;;9.10;99.90;;;;;;4979241;28;20868;-78
2024/02/10 08:49:14;;;;;;;2.57;2.37;;;9.10;99.90;;;;;;4978634;28;20480;-78
2024/02/10 08:51:41;;;;;;;3.73;1.70;;;9.20;99.90;;;;;;4978902;28;20446;-78
2024/02/10 08:54:10;;;;;;;4.17;3.30;;;9.20;99.90;;;;;;4979021;28;20472;-79
2024/02/10 08:56:41;;;;;;;2.83;1.33;;;9.10;99.90;;;;;;4979136;28;20454;-79
2024/02/10 08:59:09;;;;;;;3.03;1.63;;;9.10;99.90;;;;;;4979115;28;21057;-79
2024/02/10 09:01:41;;;;;;;7.53;2.73;;;9.10;99.90;;;;;;4978954;28;20485;-79
2024/02/10 09:04:08;;;;;;;3.27;1.80;;;9.10;99.90;;;;;;4978629;28;20921;-79
2024/02/10 09:06:35;;;;;;;7.33;2.80;;;9.10;99.90;;;;;;4979710;28;20544;-79
2024/02/10 09:09:03;;;;;;;3.27;1.80;;;9.10;99.90;;;;;;4979774;28;20465;-79
2024/02/10 09:11:41;;;;;;;4.30;2.73;;;9.10;99.90;;;;;;4978580;28;20477;-79
2024/02/10 09:14:08;;;;;;;3.10;2.40;;;9.20;99.90;;;;;;4979147;28;20437;-79
2024/02/10 09:16:34;;;;;;;5.03;2.33;;;9.30;99.90;;;;;;4979008;28;20460;-79
2024/02/10 09:19:03;;;;;;;4.40;2.50;;;9.30;99.90;;;;;;4978517;28;20982;-79
2024/02/10 09:21:29;;;;;;;4.20;2.53;;;9.30;99.90;;;;;;4978644;28;20492;-79
2024/02/10 09:23:58;;;;;;;3.27;1.50;;;9.30;99.90;;;;;;4977778;28;20943;-79
2024/02/10 09:26:25;;;;;;;2.90;2.23;;;9.30;99.90;;;;;;4977808;28;20457;-79
2024/02/10 09:28:52;;;;;;;4.10;1.80;;;9.30;99.90;;;;;;4977675;28;20939;-79
2024/02/10 09:31:23;;;;;;;3.07;1.93;;;9.40;99.90;;;;;;4977980;28;20445;-79
2024/02/10 09:33:50;;;;;;;2.50;2.30;;;9.40;99.90;;;;;;4978077;28;20425;-79
2024/02/10 09:36:18;;;;;;;7.40;2.70;;;9.30;99.90;;;;;;4978415;28;20456;-79
2024/02/10 09:38:45;;;;;;;3.73;2.00;;;9.30;99.90;;;;;;4977651;28;20850;-79
2024/02/10 09:41:12;;;;;;;2.90;2.00;;;9.30;99.90;;;;;;4977233;28;20485;-79
2024/02/10 09:43:40;;;;;;;3.27;2.07;;;9.20;99.90;;;;;;4977041;28;20472;-79
2024/02/10 09:46:08;;;;;;;4.00;1.90;;;9.20;99.90;;;;;;4977129;28;20441;-79
2024/02/10 09:48:38;;;;;;;3.37;2.20;;;9.20;99.90;;;;;;4981725;28;20510;-79
2024/02/10 09:51:05;;;;;;;5.90;2.37;;;9.20;99.90;;;;;;4979352;28;20432;-79
2024/02/10 09:53:34;;;;;;;3.07;1.60;;;9.20;99.90;;;;;;4976570;28;20449;-79
2024/02/10 09:56:01;;;;;;;5.17;2.40;;;9.20;99.90;;;;;;4975833;28;20448;-79
2024/02/10 09:58:28;;;;;;;3.33;1.97;;;9.10;99.90;;;;;;4976008;28;20437;-79
2024/02/10 10:01:01;;;;;;;3.40;1.70;;;9.10;99.90;;;;;;4975814;28;20496;-79
2024/02/10 10:03:27;;;;;;;3.20;1.97;;;9.20;99.90;;;;;;4975077;28;20442;-79
2024/02/10 10:05:55;;;;;;;3.87;2.60;;;9.20;99.90;;;;;;4975709;28;20933;-79
2024/02/10 10:08:22;;;;;;;6.60;2.90;;;9.20;99.90;;;;;;4976052;28;20489;-79
2024/02/10 10:10:52;;;;;;;2.33;1.93;;;9.20;99.90;;;;;;4975433;28;20893;-79
2024/02/10 10:13:19;;;;;;;4.70;2.47;;;9.20;99.90;;;;;;4975942;28;20458;-78
2024/02/10 10:15:45;;;;;;;3.07;1.53;;;9.20;99.90;;;;;;4976409;28;20460;-78
2024/02/10 10:18:16;;;;;;;4.37;2.57;;;9.30;99.90;;;;;;4976418;28;20454;-79
2024/02/10 10:20:47;;;;;;;10.33;2.60;;;9.30;99.90;;;;;;4976481;28;20469;-79
2024/02/10 10:23:14;;;;;;;3.53;2.50;;;9.30;99.90;;;;;;4976158;28;20437;-79
2024/02/10 10:25:43;;;;;;;5.87;3.73;;;9.40;99.90;;;;;;4976539;28;20854;-79
2024/02/10 10:28:13;;;;;;;13.70;3.30;;;9.40;99.90;;;;;;4976016;28;20445;-78
2024/02/10 10:30:43;;;;;;;5.17;2.30;;;9.50;99.90;;;;;;4976021;28;20531;-78
2024/02/10 10:33:11;;;;;;;2.80;2.40;;;9.50;99.90;;;;;;4976404;28;20441;-79
2024/02/10 10:35:40;;;;;;;6.47;2.70;;;9.50;99.90;;;;;;4975833;28;20460;-78
2024/02/10 10:38:10;;;;;;;4.20;2.30;;;9.40;99.90;;;;;;4975517;28;20433;-78
2024/02/10 10:40:37;;;;;;;8.13;2.30;;;9.50;99.90;;;;;;4975829;28;20481;-79
2024/02/10 10:43:10;;;;;;;6.40;3.03;;;9.50;99.90;;;;;;4975868;28;20445;-79
2024/02/10 10:45:39;;;;;;;3.00;1.57;;;9.60;99.90;;;;;;4975954;28;20437;-78
2024/02/10 10:48:07;;;;;;;2.50;2.30;;;9.60;99.90;;;;;;4974995;28;20549;-78
2024/02/10 10:50:35;;;;;;;2.93;2.13;;;9.60;99.90;;;;;;4975136;28;20468;-78
2024/02/10 10:53:07;;;;;;;11.70;3.93;;;9.70;99.90;;;;;;4975349;28;20445;-78
2024/02/10 10:55:39;;;;;;;10.80;3.30;;;9.80;99.90;;;;;;4975345;28;20437;-78
2024/02/10 10:58:11;;;;;;;7.40;4.20;;;9.80;99.90;;;;;;4975367;28;20429;-78
2024/02/10 11:00:41;;;;;;;5.40;3.10;;;9.90;99.90;;;;;;4975113;28;20875;-78
2024/02/10 11:03:08;;;;;;;9.50;3.43;;;9.90;99.90;;;;;;4975413;28;20503;-78
2024/02/10 11:05:42;;;;;;;6.60;3.60;;;9.90;99.90;;;;;;4975719;28;20456;-78
2024/02/10 11:08:13;;;;;;;7.83;3.20;;;9.90;99.90;;;;;;4975722;28;20488;-78
2024/02/10 11:10:44;;;;;;;8.13;3.20;;;10.00;99.90;;;;;;4963087;28;20475;-78
2024/02/10 11:13:20;;;;;;;2.37;2.20;;;10.00;99.90;;;;;;4936996;29;20443;-78
2024/02/10 11:15:48;;;;;;;7.00;3.27;;;10.20;99.90;;;;;;4938646;29;20431;-78
2024/02/10 11:18:17;;;;;;;6.73;2.93;;;10.20;99.90;;;;;;4940749;29;20451;-78
2024/02/10 11:20:44;;;;;;;3.77;2.30;;;10.20;99.90;;;;;;4940647;29;20471;-78
2024/02/10 11:23:21;;;;;;;5.50;2.53;;;10.10;99.90;;;;;;4941042;29;20454;-78
2024/02/10 11:25:52;;;;;;;2.33;2.07;;;10.20;99.90;;;;;;4940686;29;20435;-78
2024/02/10 11:28:23;;;;;;;6.33;3.10;;;10.30;99.90;;;;;;4940942;29;20436;-78
2024/02/10 11:30:51;;;;;;;6.27;3.07;;;10.30;99.90;;;;;;4940265;29;20459;-78
2024/02/10 11:33:22;;;;;;;5.00;2.23;;;10.50;99.90;;;;;;4940530;29;20458;-78
2024/02/10 11:35:50;;;;;;;10.20;3.83;;;10.50;99.90;;;;;;4940698;29;20535;-78
2024/02/10 11:38:17;;;;;;;4.57;2.93;;;10.60;99.90;;;;;;4940495;29;20553;-78
2024/02/10 11:40:44;;;;;;;7.10;3.67;;;10.70;99.90;;;;;;4940348;29;20482;-78
2024/02/10 11:43:14;;;;;;;6.63;2.43;;;10.70;99.90;;;;;;4940568;29;20493;-78
2024/02/10 11:45:41;;;;;;;5.33;2.77;;;10.70;99.90;;;;;;4940281;29;20453;-79
2024/02/10 11:48:09;;;;;;;4.97;2.47;;;10.80;99.90;;;;;;4940913;29;20799;-78
2024/02/10 11:50:42;;;;;;;3.10;2.27;;;10.80;99.90;;;;;;4940410;29;20560;-78
2024/02/10 11:53:11;;;;;;;2.43;1.87;;;10.90;99.90;;;;;;4940276;29;20889;-78
2024/02/10 11:55:41;;;;;;;3.27;1.57;;;11.00;99.90;;;;;;4940546;29;20514;-78
2024/02/10 11:58:09;;;;;;;4.33;2.60;;;11.10;99.90;;;;;;4940493;29;20884;-78
2024/02/10 12:00:36;;;;;;;1.43;1.27;;;11.00;99.90;;;;;;4945518;28;20458;-80
2024/02/10 12:03:04;;;;;;;8.43;2.23;;;11.20;99.90;;;;;;4943076;29;20490;-78
2024/02/10 12:05:34;;;;;;;3.30;1.77;;;11.10;99.90;;;;;;4940150;29;20479;-78
2024/02/10 12:08:02;;;;;;;3.27;1.90;;;11.20;99.90;;;;;;4939638;29;20454;-78
2024/02/10 12:10:29;;;;;;;3.50;2.80;;;11.10;99.90;;;;;;4938863;29;20493;-78
2024/02/10 12:12:56;;;;;;;4.07;2.17;;;11.10;99.90;;;;;;4939658;29;20466;-78
2024/02/10 12:15:23;;;;;;;3.20;2.13;;;11.10;99.90;;;;;;4939181;29;20447;-78
2024/02/10 12:17:50;;;;;;;6.53;3.20;;;11.10;99.90;;;;;;4939040;29;20439;-78
2024/02/10 12:20:18;;;;;;;4.03;1.70;;;11.10;99.90;;;;;;4940064;29;20466;-78
2024/02/10 12:22:47;;;;;;;6.93;3.50;;;11.10;99.90;;;;;;4939858;29;20871;-77
2024/02/10 12:25:14;;;;;;;3.40;1.97;;;11.20;99.90;;;;;;4939858;29;20454;-78
2024/02/10 12:27:40;;;;;;;1.80;1.70;;;11.30;99.90;;;;;;4939484;29;20451;-78
2024/02/10 12:30:08;;;;;;;2.60;1.73;;;11.40;99.90;;;;;;4939248;29;20470;-79
2024/02/10 12:32:35;;;;;;;2.87;2.20;;;11.60;99.90;;;;;;4939092;29;20436;-78
2024/02/10 12:35:06;;;;;;;2.30;1.43;;;11.70;99.90;;;;;;4939187;29;20470;-78
2024/02/10 12:37:33;;;;;;;3.83;2.10;;;11.70;99.90;;;;;;4939068;29;20543;-78
2024/02/10 12:40:03;;;;;;;5.57;2.70;;;11.70;99.90;;;;;;4938927;29;20474;-78
2024/02/10 12:42:31;;;;;;;4.50;3.17;;;11.80;99.90;;;;;;4938862;29;21000;-78
2024/02/10 12:44:58;;;;;;;9.57;2.30;;;11.90;99.90;;;;;;4938484;29;21043;-78
2024/02/10 12:47:27;;;;;;;4.50;2.30;;;12.00;99.90;;;;;;4939247;29;20443;-78
2024/02/10 12:49:56;;;;;;;4.07;2.37;;;12.10;99.90;;;;;;4939420;29;20474;-78
2024/02/10 12:52:25;;;;;;;5.53;2.50;;;12.10;99.90;;;;;;4939313;29;20458;-78
2024/02/10 12:54:54;;;;;;;3.27;2.20;;;12.10;99.90;;;;;;4939558;29;20534;-78
2024/02/10 12:57:22;;;;;;;2.00;1.53;;;12.10;99.90;;;;;;4939238;29;20485;-78
2024/02/10 12:59:50;;;;;;;4.10;2.00;;;12.10;99.90;;;;;;4938943;29;20976;-78